sensor_id;sensor_type;location;lat;lon;timestamp;pressure;altitude;pressure_sealevel;temperature;humidity
69667;BME280;66534;52.370;4.832;2023-05-09T00:00:02;101748.22;;;16.57;100.00
69667;BME280;66534;52.370;4.832;2023-05-09T00:00:38;101752.50;;;16.75;100.00
69667;BME280;66534;52.370;4.832;2023-05-09T00:01:11;101751.06;;;16.85;100.00
69667;BME280;66534;52.370;4.832;2023-05-09T00:01:43;101748.94;;;16.76;100.00
69667;BME280;66534;52.370;4.832;2023-05-09T00:02:14;101753.84;;;16.35;100.00
69667;BME280;66534;52.370;4.832;2023-05-09T00:02:45;101757.13;;;16.23;100.00
69667;BME280;66534;52.370;4.832;2023-05-09T00:03:15;101751.94;;;16.37;100.00
69667;BME280;66534;52.370;4.832;2023-05-09T00:03:46;101745.22;;;16.63;100.00
69667;BME280;66534;52.370;4.832;2023-05-09T00:04:16;101747.69;;;16.66;100.00
69667;BME280;66534;52.370;4.832;2023-05-09T00:04:46;101745.13;;;16.64;100.00
69667;BME280;66534;52.370;4.832;2023-05-09T00:05:17;101750.31;;;16.34;100.00
69667;BME280;66534;52.370;4.832;2023-05-09T00:05:49;101749.59;;;16.15;100.00
69667;BME280;66534;52.370;4.832;2023-05-09T00:06:20;101748.06;;;16.11;100.00
69667;BME280;66534;52.370;4.832;2023-05-09T00:06:50;101742.34;;;15.85;100.00
69667;BME280;66534;52.370;4.832;2023-05-09T00:07:21;101746.59;;;15.88;100.00
69667;BME280;66534;52.370;4.832;2023-05-09T00:07:51;101743.09;;;15.87;100.00
69667;BME280;66534;52.370;4.832;2023-05-09T00:08:22;101749.72;;;15.96;100.00
69667;BME280;66534;52.370;4.832;2023-05-09T00:08:53;101741.06;;;16.26;100.00
69667;BME280;66534;52.370;4.832;2023-05-09T00:09:24;101745.34;;;16.28;100.00
69667;BME280;66534;52.370;4.832;2023-05-09T00:09:54;101739.81;;;16.00;100.00
69667;BME280;66534;52.370;4.832;2023-05-09T00:10:25;101743.03;;;15.89;100.00
69667;BME280;66534;52.370;4.832;2023-05-09T00:10:56;101739.97;;;16.14;100.00
69667;BME280;66534;52.370;4.832;2023-05-09T00:11:26;101736.88;;;16.06;100.00
69667;BME280;66534;52.370;4.832;2023-05-09T00:11:57;101744.13;;;15.85;100.00
69667;BME280;66534;52.370;4.832;2023-05-09T00:12:27;101743.25;;;15.50;100.00
69667;BME280;66534;52.370;4.832;2023-05-09T00:12:58;101740.75;;;15.47;100.00
69667;BME280;66534;52.370;4.832;2023-05-09T00:13:29;101751.13;;;15.51;100.00
69667;BME280;66534;52.370;4.832;2023-05-09T00:14:00;101747.94;;;15.62;100.00
69667;BME280;66534;52.370;4.832;2023-05-09T00:14:31;101735.50;;;15.64;100.00
69667;BME280;66534;52.370;4.832;2023-05-09T00:15:02;101745.06;;;15.49;100.00
69667;BME280;66534;52.370;4.832;2023-05-09T00:15:33;101741.16;;;15.56;100.00
69667;BME280;66534;52.370;4.832;2023-05-09T00:16:03;101742.72;;;15.60;100.00
69667;BME280;66534;52.370;4.832;2023-05-09T00:16:34;101737.34;;;15.62;100.00
69667;BME280;66534;52.370;4.832;2023-05-09T00:17:05;101738.78;;;15.69;100.00
69667;BME280;66534;52.370;4.832;2023-05-09T00:17:36;101735.03;;;15.73;100.00
69667;BME280;66534;52.370;4.832;2023-05-09T00:18:07;101739.41;;;15.74;100.00
69667;BME280;66534;52.370;4.832;2023-05-09T00:18:37;101741.56;;;15.66;100.00
69667;BME280;66534;52.370;4.832;2023-05-09T00:19:11;101737.22;;;15.65;100.00
69667;BME280;66534;52.370;4.832;2023-05-09T00:19:42;101745.22;;;15.63;100.00
69667;BME280;66534;52.370;4.832;2023-05-09T00:20:13;101738.22;;;15.80;100.00
69667;BME280;66534;52.370;4.832;2023-05-09T00:20:43;101737.84;;;15.70;100.00
69667;BME280;66534;52.370;4.832;2023-05-09T00:21:14;101743.25;;;15.50;100.00
69667;BME280;66534;52.370;4.832;2023-05-09T00:21:44;101746.38;;;15.40;100.00
69667;BME280;66534;52.370;4.832;2023-05-09T00:22:18;101743.72;;;15.40;100.00
69667;BME280;66534;52.370;4.832;2023-05-09T00:22:52;101744.34;;;15.45;100.00
69667;BME280;66534;52.370;4.832;2023-05-09T00:23:22;101746.22;;;15.61;100.00
69667;BME280;66534;52.370;4.832;2023-05-09T00:23:53;101741.03;;;15.77;100.00
69667;BME280;66534;52.370;4.832;2023-05-09T00:24:23;101748.63;;;15.83;100.00
69667;BME280;66534;52.370;4.832;2023-05-09T00:24:53;101746.63;;;15.71;100.00
69667;BME280;66534;52.370;4.832;2023-05-09T00:25:24;101745.06;;;15.66;100.00
69667;BME280;66534;52.370;4.832;2023-05-09T00:25:55;101743.94;;;15.72;100.00
69667;BME280;66534;52.370;4.832;2023-05-09T00:26:25;101750.38;;;15.66;100.00
69667;BME280;66534;52.370;4.832;2023-05-09T00:26:56;101747.94;;;15.62;100.00
69667;BME280;66534;52.370;4.832;2023-05-09T00:27:26;101744.94;;;15.69;100.00
69667;BME280;66534;52.370;4.832;2023-05-09T00:27:59;101748.63;;;15.83;100.00
69667;BME280;66534;52.370;4.832;2023-05-09T00:28:30;101748.78;;;15.62;100.00
69667;BME280;66534;52.370;4.832;2023-05-09T00:29:01;101757.56;;;15.45;100.00
69667;BME280;66534;52.370;4.832;2023-05-09T00:29:31;101746.59;;;15.36;100.00
69667;BME280;66534;52.370;4.832;2023-05-09T00:30:02;101749.16;;;15.20;100.00
69667;BME280;66534;52.370;4.832;2023-05-09T00:30:33;101746.66;;;15.17;100.00
69667;BME280;66534;52.370;4.832;2023-05-09T00:31:04;101752.34;;;15.27;100.00
69667;BME280;66534;52.370;4.832;2023-05-09T00:31:34;101748.06;;;15.24;100.00
69667;BME280;66534;52.370;4.832;2023-05-09T00:32:05;101756.38;;;15.16;100.00
69667;BME280;66534;52.370;4.832;2023-05-09T00:32:35;101752.25;;;15.11;100.00
69667;BME280;66534;52.370;4.832;2023-05-09T00:33:06;101748.44;;;15.16;100.00
69667;BME280;66534;52.370;4.832;2023-05-09T00:33:36;101748.91;;;15.25;100.00
69667;BME280;66534;52.370;4.832;2023-05-09T00:34:07;101744.66;;;15.22;100.00
69667;BME280;66534;52.370;4.832;2023-05-09T00:34:37;101740.53;;;15.34;100.00
69667;BME280;66534;52.370;4.832;2023-05-09T00:35:08;101744.97;;;15.51;100.00
69667;BME280;66534;52.370;4.832;2023-05-09T00:35:39;101741.69;;;15.45;100.00
69667;BME280;66534;52.370;4.832;2023-05-09T00:36:09;101743.25;;;15.50;100.00
69667;BME280;66534;52.370;4.832;2023-05-09T00:36:39;101746.28;;;15.42;100.00
69667;BME280;66534;52.370;4.832;2023-05-09T00:37:10;101739.72;;;15.68;100.00
69667;BME280;66534;52.370;4.832;2023-05-09T00:37:41;101741.78;;;15.61;100.00
69667;BME280;66534;52.370;4.832;2023-05-09T00:38:11;101741.31;;;15.88;100.00
69667;BME280;66534;52.370;4.832;2023-05-09T00:38:42;101735.56;;;15.45;100.00
69667;BME280;66534;52.370;4.832;2023-05-09T00:39:12;101738.22;;;15.45;100.00
69667;BME280;66534;52.370;4.832;2023-05-09T00:39:43;101732.66;;;15.68;100.00
69667;BME280;66534;52.370;4.832;2023-05-09T00:40:14;101736.41;;;15.45;100.00
69667;BME280;66534;52.370;4.832;2023-05-09T00:40:45;101743.72;;;15.40;100.00
69667;BME280;66534;52.370;4.832;2023-05-09T00:41:15;101738.44;;;15.40;100.00
69667;BME280;66534;52.370;4.832;2023-05-09T00:41:45;101737.22;;;15.30;100.00
69667;BME280;66534;52.370;4.832;2023-05-09T00:42:16;101736.16;;;15.15;100.00
69667;BME280;66534;52.370;4.832;2023-05-09T00:42:46;101738.13;;;15.29;100.00
69667;BME280;66534;52.370;4.832;2023-05-09T00:43:17;101731.28;;;15.25;100.00
69667;BME280;66534;52.370;4.832;2023-05-09T00:43:47;101736.78;;;15.20;100.00
69667;BME280;66534;52.370;4.832;2023-05-09T00:44:17;101729.19;;;15.32;100.00
69667;BME280;66534;52.370;4.832;2023-05-09T00:44:48;101737.25;;;15.46;100.00
69667;BME280;66534;52.370;4.832;2023-05-09T00:45:18;101731.34;;;15.58;100.00
69667;BME280;66534;52.370;4.832;2023-05-09T00:45:49;101727.09;;;15.56;100.00
69667;BME280;66534;52.370;4.832;2023-05-09T00:46:19;101729.50;;;15.43;100.00
69667;BME280;66534;52.370;4.832;2023-05-09T00:46:50;101727.47;;;15.48;100.00
69667;BME280;66534;52.370;4.832;2023-05-09T00:47:21;101725.47;;;15.36;100.00
69667;BME280;66534;52.370;4.832;2023-05-09T00:47:52;101727.09;;;15.38;100.00
69667;BME280;66534;52.370;4.832;2023-05-09T00:48:23;101723.31;;;15.08;100.00
69667;BME280;66534;52.370;4.832;2023-05-09T00:48:54;101725.03;;;15.09;100.00
69667;BME280;66534;52.370;4.832;2023-05-09T00:49:25;101725.91;;;15.09;100.00
69667;BME280;66534;52.370;4.832;2023-05-09T00:49:55;101720.06;;;15.03;100.00
69667;BME280;66534;52.370;4.832;2023-05-09T00:50:27;101721.38;;;15.11;100.00
69667;BME280;66534;52.370;4.832;2023-05-09T00:50:57;101720.78;;;15.06;100.00
69667;BME280;66534;52.370;4.832;2023-05-09T00:51:28;101721.38;;;15.11;100.00
69667;BME280;66534;52.370;4.832;2023-05-09T00:51:58;101726.22;;;15.38;100.00
69667;BME280;66534;52.370;4.832;2023-05-09T00:52:30;101721.88;;;15.37;100.00
69667;BME280;66534;52.370;4.832;2023-05-09T00:53:03;101719.69;;;15.45;100.00
69667;BME280;66534;52.370;4.832;2023-05-09T00:53:34;101722.56;;;15.40;100.00
69667;BME280;66534;52.370;4.832;2023-05-09T00:54:05;101722.19;;;15.48;100.00
69667;BME280;66534;52.370;4.832;2023-05-09T00:54:37;101716.81;;;15.32;100.00
69667;BME280;66534;52.370;4.832;2023-05-09T00:55:07;101719.47;;;15.32;100.00
69667;BME280;66534;52.370;4.832;2023-05-09T00:55:38;101716.44;;;15.40;100.00
69667;BME280;66534;52.370;4.832;2023-05-09T00:56:09;101715.50;;;15.41;100.00
69667;BME280;66534;52.370;4.832;2023-05-09T00:56:40;101722.19;;;15.48;100.00
69667;BME280;66534;52.370;4.832;2023-05-09T00:57:11;101720.69;;;15.25;100.00
69667;BME280;66534;52.370;4.832;2023-05-09T00:57:41;101711.06;;;15.41;100.00
69667;BME280;66534;52.370;4.832;2023-05-09T00:58:12;101709.19;;;15.61;100.00
69667;BME280;66534;52.370;4.832;2023-05-09T00:58:42;101713.94;;;15.89;100.00
69667;BME280;66534;52.370;4.832;2023-05-09T00:59:13;101705.22;;;15.87;100.00
69667;BME280;66534;52.370;4.832;2023-05-09T00:59:43;101703.88;;;15.96;100.00
69667;BME280;66534;52.370;4.832;2023-05-09T01:00:14;101709.75;;;15.85;100.00
69667;BME280;66534;52.370;4.832;2023-05-09T01:00:45;101711.44;;;15.86;100.00
69667;BME280;66534;52.370;4.832;2023-05-09T01:01:17;101710.63;;;15.68;100.00
69667;BME280;66534;52.370;4.832;2023-05-09T01:01:47;101702.97;;;15.62;100.00
69667;BME280;66534;52.370;4.832;2023-05-09T01:02:17;101707.66;;;15.57;100.00
69667;BME280;66534;52.370;4.832;2023-05-09T01:02:52;101700.56;;;15.40;100.00
69667;BME280;66534;52.370;4.832;2023-05-09T01:03:24;101701.25;;;15.61;100.00
69667;BME280;66534;52.370;4.832;2023-05-09T01:03:54;101702.88;;;15.46;100.00
69667;BME280;66534;52.370;4.832;2023-05-09T01:04:25;101701.91;;;15.31;100.00
69667;BME280;66534;52.370;4.832;2023-05-09T01:04:55;101703.69;;;15.31;100.00
69667;BME280;66534;52.370;4.832;2023-05-09T01:05:29;101704.22;;;15.37;100.00
69667;BME280;66534;52.370;4.832;2023-05-09T01:07:05;101696.69;;;15.47;100.00
69667;BME280;66534;52.370;4.832;2023-05-09T01:07:25;101701.81;;;15.50;100.00
69667;BME280;66534;52.370;4.832;2023-05-09T01:08:16;101700.00;;;15.51;100.00
69667;BME280;66534;52.370;4.832;2023-05-09T01:08:58;101702.44;;;15.38;100.00
69667;BME280;66534;52.370;4.832;2023-05-09T01:11:12;101689.00;;;15.42;100.00
69667;BME280;66534;52.370;4.832;2023-05-09T01:12:17;101692.88;;;15.53;100.00
69667;BME280;66534;52.370;4.832;2023-05-09T01:15:45;101693.25;;;15.80;100.00
69667;BME280;66534;52.370;4.832;2023-05-09T01:16:30;101696.97;;;15.58;100.00
69667;BME280;66534;52.370;4.832;2023-05-09T01:17:19;101695.59;;;15.68;100.00
69667;BME280;66534;52.370;4.832;2023-05-09T01:18:24;101695.66;;;15.32;100.00
69667;BME280;66534;52.370;4.832;2023-05-09T01:19:04;101697.78;;;15.60;100.00
69667;BME280;66534;52.370;4.832;2023-05-09T01:21:00;101701.91;;;15.66;100.00
69667;BME280;66534;52.370;4.832;2023-05-09T01:21:36;101685.56;;;15.40;100.00
69667;BME280;66534;52.370;4.832;2023-05-09T01:22:11;101687.34;;;15.57;100.00
69667;BME280;66534;52.370;4.832;2023-05-09T01:22:51;101692.97;;;15.68;100.00
69667;BME280;66534;52.370;4.832;2023-05-09T01:26:59;101675.22;;;15.53;100.00
69667;BME280;66534;52.370;4.832;2023-05-09T01:28:00;101682.38;;;15.51;100.00
69667;BME280;66534;52.370;4.832;2023-05-09T01:29:31;101677.03;;;15.18;100.00
69667;BME280;66534;52.370;4.832;2023-05-09T01:30:13;101678.41;;;15.08;100.00
69667;BME280;66534;52.370;4.832;2023-05-09T01:30:46;101678.63;;;15.20;100.00
69667;BME280;66534;52.370;4.832;2023-05-09T01:31:20;101673.13;;;15.25;100.00
69667;BME280;66534;52.370;4.832;2023-05-09T01:31:52;101674.28;;;15.19;100.00
69667;BME280;66534;52.370;4.832;2023-05-09T01:32:26;101672.09;;;15.45;100.00
69667;BME280;66534;52.370;4.832;2023-05-09T01:32:58;101669.09;;;15.35;100.00
69667;BME280;66534;52.370;4.832;2023-05-09T01:33:35;101672.25;;;15.25;100.00
69667;BME280;66534;52.370;4.832;2023-05-09T01:34:10;101675.94;;;15.22;100.00
69667;BME280;66534;52.370;4.832;2023-05-09T01:34:40;101677.78;;;15.20;100.00
69667;BME280;66534;52.370;4.832;2023-05-09T01:35:14;101669.56;;;15.26;100.00
69667;BME280;66534;52.370;4.832;2023-05-09T01:35:47;101676.94;;;15.19;100.00
69667;BME280;66534;52.370;4.832;2023-05-09T01:36:23;101674.19;;;15.21;100.00
69667;BME280;66534;52.370;4.832;2023-05-09T01:36:59;101672.66;;;15.17;100.00
69667;BME280;66534;52.370;4.832;2023-05-09T01:37:34;101671.75;;;15.18;100.00
69667;BME280;66534;52.370;4.832;2023-05-09T01:38:10;101675.28;;;15.17;100.00
69667;BME280;66534;52.370;4.832;2023-05-09T01:38:47;101670.47;;;15.25;100.00
69667;BME280;66534;52.370;4.832;2023-05-09T01:39:20;101667.38;;;15.17;100.00
69667;BME280;66534;52.370;4.832;2023-05-09T01:39:54;101668.88;;;15.05;100.00
69667;BME280;66534;52.370;4.832;2023-05-09T01:40:29;101669.00;;;15.02;100.00
69667;BME280;66534;52.370;4.832;2023-05-09T01:41:02;101670.72;;;15.03;100.00
69667;BME280;66534;52.370;4.832;2023-05-09T01:41:35;101658.44;;;15.19;100.00
69667;BME280;66534;52.370;4.832;2023-05-09T01:42:07;101660.53;;;15.30;100.00
69667;BME280;66534;52.370;4.832;2023-05-09T01:42:41;101659.81;;;15.44;100.00
69667;BME280;66534;52.370;4.832;2023-05-09T01:43:16;101655.94;;;15.51;100.00
69667;BME280;66534;52.370;4.832;2023-05-09T01:43:49;101654.28;;;15.49;100.00
69667;BME280;66534;52.370;4.832;2023-05-09T01:44:21;101651.19;;;15.40;100.00
69667;BME280;66534;52.370;4.832;2023-05-09T01:44:52;101652.34;;;15.52;100.00
69667;BME280;66534;52.370;4.832;2023-05-09T01:45:24;101653.50;;;15.47;100.00
69667;BME280;66534;52.370;4.832;2023-05-09T01:45:56;101647.38;;;15.29;100.00
69667;BME280;66534;52.370;4.832;2023-05-09T01:46:27;101643.59;;;15.34;100.00
69667;BME280;66534;52.370;4.832;2023-05-09T01:46:58;101647.94;;;15.35;100.00
69667;BME280;66534;52.370;4.832;2023-05-09T01:47:30;101645.22;;;15.37;100.00
69667;BME280;66534;52.370;4.832;2023-05-09T01:48:01;101646.41;;;15.14;100.00
69667;BME280;66534;52.370;4.832;2023-05-09T01:48:33;101642.59;;;15.02;100.00
69667;BME280;66534;52.370;4.832;2023-05-09T01:49:06;101646.06;;;15.03;100.00
69667;BME280;66534;52.370;4.832;2023-05-09T01:49:38;101644.06;;;15.08;100.00
69667;BME280;66534;52.370;4.832;2023-05-09T01:50:11;101639.94;;;15.19;100.00
69667;BME280;66534;52.370;4.832;2023-05-09T01:50:42;101645.69;;;15.28;100.00
69667;BME280;66534;52.370;4.832;2023-05-09T01:51:14;101645.81;;;15.42;100.00
69667;BME280;66534;52.370;4.832;2023-05-09T01:51:46;101642.94;;;15.47;100.00
69667;BME280;66534;52.370;4.832;2023-05-09T01:52:18;101639.59;;;15.26;100.00
69667;BME280;66534;52.370;4.832;2023-05-09T01:52:50;101645.75;;;15.09;100.00
69667;BME280;66534;52.370;4.832;2023-05-09T01:53:23;101644.53;;;14.99;100.00
69667;BME280;66534;52.370;4.832;2023-05-09T01:53:56;101643.91;;;15.28;100.00
69667;BME280;66534;52.370;4.832;2023-05-09T01:54:29;101635.19;;;15.26;100.00
69667;BME280;66534;52.370;4.832;2023-05-09T01:55:01;101637.91;;;15.25;100.00
69667;BME280;66534;52.370;4.832;2023-05-09T01:55:34;101635.88;;;15.64;100.00
69667;BME280;66534;52.370;4.832;2023-05-09T01:56:06;101632.03;;;15.70;100.00
69667;BME280;66534;52.370;4.832;2023-05-09T01:56:38;101638.63;;;15.61;100.00
69667;BME280;66534;52.370;4.832;2023-05-09T01:57:11;101630.50;;;15.66;100.00
69667;BME280;66534;52.370;4.832;2023-05-09T01:57:42;101637.44;;;15.51;100.00
69667;BME280;66534;52.370;4.832;2023-05-09T01:58:14;101640.75;;;15.72;100.00
69667;BME280;66534;52.370;4.832;2023-05-09T01:58:46;101641.38;;;15.60;100.00
69667;BME280;66534;52.370;4.832;2023-05-09T01:59:19;101634.78;;;15.51;100.00
69667;BME280;66534;52.370;4.832;2023-05-09T01:59:50;101642.63;;;15.53;100.00
69667;BME280;66534;52.370;4.832;2023-05-09T02:00:22;101633.69;;;15.38;100.00
69667;BME280;66534;52.370;4.832;2023-05-09T02:00:53;101637.84;;;15.26;100.00
69667;BME280;66534;52.370;4.832;2023-05-09T02:01:24;101636.28;;;15.22;100.00
69667;BME280;66534;52.370;4.832;2023-05-09T02:01:55;101639.56;;;15.27;100.00
69667;BME280;66534;52.370;4.832;2023-05-09T02:02:27;101635.69;;;15.50;100.00
69667;BME280;66534;52.370;4.832;2023-05-09T02:02:58;101639.19;;;15.51;100.00
69667;BME280;66534;52.370;4.832;2023-05-09T02:03:28;101632.28;;;15.65;100.00
69667;BME280;66534;52.370;4.832;2023-05-09T02:04:01;101632.13;;;15.34;100.00
69667;BME280;66534;52.370;4.832;2023-05-09T02:04:34;101630.44;;;15.15;100.00
69667;BME280;66534;52.370;4.832;2023-05-09T02:05:05;101634.09;;;15.13;100.00
69667;BME280;66534;52.370;4.832;2023-05-09T02:05:39;101629.59;;;14.98;100.00
69667;BME280;66534;52.370;4.832;2023-05-09T02:06:10;101632.25;;;15.15;100.00
69667;BME280;66534;52.370;4.832;2023-05-09T02:06:42;101638.75;;;15.25;100.00
69667;BME280;66534;52.370;4.832;2023-05-09T02:07:14;101628.81;;;15.30;100.00
69667;BME280;66534;52.370;4.832;2023-05-09T02:07:45;101633.69;;;15.38;100.00
69667;BME280;66534;52.370;4.832;2023-05-09T02:08:17;101635.56;;;15.36;100.00
69667;BME280;66534;52.370;4.832;2023-05-09T02:08:50;101634.38;;;15.41;100.00
69667;BME280;66534;52.370;4.832;2023-05-09T02:09:20;101628.41;;;15.38;100.00
69667;BME280;66534;52.370;4.832;2023-05-09T02:09:51;101630.66;;;15.45;100.00
69667;BME280;66534;52.370;4.832;2023-05-09T02:10:25;101628.56;;;15.52;100.00
69667;BME280;66534;52.370;4.832;2023-05-09T02:10:57;101631.56;;;15.62;100.00
69667;BME280;66534;52.370;4.832;2023-05-09T02:11:28;101626.44;;;15.76;100.00
69667;BME280;66534;52.370;4.832;2023-05-09T02:11:58;101632.19;;;15.50;100.00
69667;BME280;66534;52.370;4.832;2023-05-09T02:12:28;101627.28;;;15.26;100.00
69667;BME280;66534;52.370;4.832;2023-05-09T02:12:59;101615.59;;;15.13;100.00
69667;BME280;66534;52.370;4.832;2023-05-09T02:13:30;101628.75;;;15.14;100.00
69667;BME280;66534;52.370;4.832;2023-05-09T02:14:00;101628.75;;;15.14;100.00
69667;BME280;66534;52.370;4.832;2023-05-09T02:14:30;101624.31;;;15.15;100.00
69667;BME280;66534;52.370;4.832;2023-05-09T02:15:01;101624.88;;;15.22;100.00
69667;BME280;66534;52.370;4.832;2023-05-09T02:15:32;101628.03;;;15.11;100.00
69667;BME280;66534;52.370;4.832;2023-05-09T02:16:03;101628.97;;;15.27;100.00
69667;BME280;66534;52.370;4.832;2023-05-09T02:16:35;101629.19;;;15.40;100.00
69667;BME280;66534;52.370;4.832;2023-05-09T02:17:08;101625.84;;;15.36;100.00
69667;BME280;66534;52.370;4.832;2023-05-09T02:17:40;101626.69;;;15.37;100.00
69667;BME280;66534;52.370;4.832;2023-05-09T02:18:11;101626.50;;;15.57;100.00
69667;BME280;66534;52.370;4.832;2023-05-09T02:18:42;101631.81;;;15.57;100.00
69667;BME280;66534;52.370;4.832;2023-05-09T02:19:13;101629.63;;;15.65;100.00
69667;BME280;66534;52.370;4.832;2023-05-09T02:19:43;101627.06;;;15.64;100.00
69667;BME280;66534;52.370;4.832;2023-05-09T02:20:14;101625.13;;;15.50;100.00
69667;BME280;66534;52.370;4.832;2023-05-09T02:20:44;101620.25;;;15.42;100.00
69667;BME280;66534;52.370;4.832;2023-05-09T02:21:14;101626.91;;;15.50;100.00
69667;BME280;66534;52.370;4.832;2023-05-09T02:21:45;101621.41;;;15.37;100.00
69667;BME280;66534;52.370;4.832;2023-05-09T02:22:15;101622.13;;;15.23;100.00
69667;BME280;66534;52.370;4.832;2023-05-09T02:22:46;101625.16;;;15.33;100.00
69667;BME280;66534;52.370;4.832;2023-05-09T02:23:17;101619.72;;;15.36;100.00
69667;BME280;66534;52.370;4.832;2023-05-09T02:23:48;101622.44;;;15.34;100.00
69667;BME280;66534;52.370;4.832;2023-05-09T02:24:19;101623.25;;;15.52;100.00
69667;BME280;66534;52.370;4.832;2023-05-09T02:24:49;101621.47;;;15.70;100.00
69667;BME280;66534;52.370;4.832;2023-05-09T02:25:19;101614.09;;;15.59;100.00
69667;BME280;66534;52.370;4.832;2023-05-09T02:25:50;101620.88;;;15.48;100.00
69667;BME280;66534;52.370;4.832;2023-05-09T02:26:23;101615.63;;;15.63;100.00
69667;BME280;66534;52.370;4.832;2023-05-09T02:26:55;101613.38;;;15.73;100.00
69667;BME280;66534;52.370;4.832;2023-05-09T02:27:25;101614.72;;;15.64;100.00
69667;BME280;66534;52.370;4.832;2023-05-09T02:27:56;101608.69;;;15.61;100.00
69667;BME280;66534;52.370;4.832;2023-05-09T02:28:28;101619.47;;;15.40;100.00
69667;BME280;66534;52.370;4.832;2023-05-09T02:28:59;101621.56;;;15.34;100.00
69667;BME280;66534;52.370;4.832;2023-05-09T02:29:36;101622.84;;;15.27;100.00
69667;BME280;66534;52.370;4.832;2023-05-09T02:30:13;101620.25;;;15.42;100.00
69667;BME280;66534;52.370;4.832;2023-05-09T02:30:48;101617.88;;;15.54;100.00
69667;BME280;66534;52.370;4.832;2023-05-09T02:31:21;101621.22;;;15.57;100.00
69667;BME280;66534;52.370;4.832;2023-05-09T02:31:54;101614.63;;;15.49;100.00
69667;BME280;66534;52.370;4.832;2023-05-09T02:32:26;101624.13;;;15.53;100.00
69667;BME280;66534;52.370;4.832;2023-05-09T02:33:00;101613.84;;;15.64;100.00
69667;BME280;66534;52.370;4.832;2023-05-09T02:33:34;101628.63;;;15.51;100.00
69667;BME280;66534;52.370;4.832;2023-05-09T02:34:06;101624.00;;;15.38;100.00
69667;BME280;66534;52.370;4.832;2023-05-09T02:34:38;101625.78;;;15.20;100.00
69667;BME280;66534;52.370;4.832;2023-05-09T02:35:11;101626.81;;;15.18;100.00
69667;BME280;66534;52.370;4.832;2023-05-09T02:35:44;101615.38;;;15.35;100.00
69667;BME280;66534;52.370;4.832;2023-05-09T02:36:15;101626.56;;;15.40;100.00
69667;BME280;66534;52.370;4.832;2023-05-09T02:36:47;101625.50;;;15.60;100.00
69667;BME280;66534;52.370;4.832;2023-05-09T02:37:18;101620.50;;;15.71;100.00
69667;BME280;66534;52.370;4.832;2023-05-09T02:37:50;101618.34;;;15.62;100.00
69667;BME280;66534;52.370;4.832;2023-05-09T02:38:22;101621.47;;;15.53;100.00
69667;BME280;66534;52.370;4.832;2023-05-09T02:38:53;101618.22;;;15.65;100.00
69667;BME280;66534;52.370;4.832;2023-05-09T02:39:23;101622.56;;;15.49;100.00
69667;BME280;66534;52.370;4.832;2023-05-09T02:39:54;101624.63;;;15.26;100.00
69667;BME280;66534;52.370;4.832;2023-05-09T02:40:26;101622.22;;;15.04;100.00
69667;BME280;66534;52.370;4.832;2023-05-09T02:40:58;101623.84;;;15.07;100.00
69667;BME280;66534;52.370;4.832;2023-05-09T02:41:28;101623.16;;;15.03;100.00
69667;BME280;66534;52.370;4.832;2023-05-09T02:42:06;101624.69;;;14.90;100.00
69667;BME280;66534;52.370;4.832;2023-05-09T02:42:38;101617.94;;;14.84;100.00
69667;BME280;66534;52.370;4.832;2023-05-09T02:43:09;101614.00;;;14.93;100.00
69667;BME280;66534;52.370;4.832;2023-05-09T02:43:39;101613.03;;;15.11;100.00
69667;BME280;66534;52.370;4.832;2023-05-09T02:44:11;101616.88;;;15.06;100.00
69667;BME280;66534;52.370;4.832;2023-05-09T02:44:41;101614.06;;;15.26;100.00
69667;BME280;66534;52.370;4.832;2023-05-09T02:45:11;101614.75;;;15.12;100.00
69667;BME280;66534;52.370;4.832;2023-05-09T02:45:42;101605.19;;;15.27;100.00
69667;BME280;66534;52.370;4.832;2023-05-09T02:46:12;101603.75;;;15.37;100.00
69667;BME280;66534;52.370;4.832;2023-05-09T02:46:43;101601.41;;;15.49;100.00
69667;BME280;66534;52.370;4.832;2023-05-09T02:47:13;101599.59;;;15.66;100.00
69667;BME280;66534;52.370;4.832;2023-05-09T02:47:44;101596.09;;;15.66;100.00
69667;BME280;66534;52.370;4.832;2023-05-09T02:48:14;101597.34;;;15.59;100.00
69667;BME280;66534;52.370;4.832;2023-05-09T02:48:44;101604.56;;;15.22;100.00
69667;BME280;66534;52.370;4.832;2023-05-09T02:49:15;101602.09;;;15.19;100.00
69667;BME280;66534;52.370;4.832;2023-05-09T02:49:45;101600.78;;;15.10;100.00
69667;BME280;66534;52.370;4.832;2023-05-09T02:50:16;101600.16;;;15.05;100.00
69667;BME280;66534;52.370;4.832;2023-05-09T02:50:47;101605.34;;;15.07;100.00
69667;BME280;66534;52.370;4.832;2023-05-09T02:51:18;101602.00;;;15.03;100.00
69667;BME280;66534;52.370;4.832;2023-05-09T02:51:48;101595.50;;;14.93;100.00
69667;BME280;66534;52.370;4.832;2023-05-09T02:52:18;101595.41;;;14.94;100.00
69667;BME280;66534;52.370;4.832;2023-05-09T02:52:49;101596.25;;;15.12;100.00
69667;BME280;66534;52.370;4.832;2023-05-09T02:53:19;101604.63;;;15.20;100.00
69667;BME280;66534;52.370;4.832;2023-05-09T02:53:50;101600.22;;;15.38;100.00
69667;BME280;66534;52.370;4.832;2023-05-09T02:54:20;101590.03;;;15.64;100.00
69667;BME280;66534;52.370;4.832;2023-05-09T02:54:51;101604.50;;;15.57;100.00
69667;BME280;66534;52.370;4.832;2023-05-09T02:55:22;101596.56;;;15.57;100.00
69667;BME280;66534;52.370;4.832;2023-05-09T02:55:52;101593.78;;;15.60;100.00
69667;BME280;66534;52.370;4.832;2023-05-09T02:56:23;101601.50;;;15.47;100.00
69667;BME280;66534;52.370;4.832;2023-05-09T02:56:53;101596.88;;;15.17;100.00